createdAt,value
2019-05-10T00:01:04.175Z,93.57
2019-05-10T00:03:52.866Z,92.51
2019-05-10T00:06:41.616Z,92.36
2019-05-10T00:09:11.920Z,92.08
2019-05-10T00:11:57.517Z,91.85
2019-05-10T00:14:59.942Z,91.94
2019-05-10T00:17:31.227Z,92.04
2019-05-10T00:20:02.540Z,90.99
2019-05-10T00:22:33.899Z,90.69
2019-05-10T00:25:05.548Z,90.33
2019-05-10T00:27:37.011Z,90.37
2019-05-10T00:30:08.621Z,90.83
2019-05-10T00:32:39.909Z,90.05
2019-05-10T00:35:11.177Z,90.01
2019-05-10T00:37:42.498Z,90.33
2019-05-10T00:40:13.897Z,90.58
2019-05-10T00:42:45.183Z,90.16
2019-05-10T00:45:16.511Z,90.15
2019-05-10T00:47:47.905Z,90.92
2019-05-10T00:50:19.198Z,90.70
2019-05-10T00:52:50.548Z,90.46
2019-05-10T00:55:21.861Z,90.28
2019-05-10T00:57:53.152Z,89.50
2019-05-10T01:00:24.524Z,88.69
2019-05-10T01:02:55.811Z,87.87
2019-05-10T01:05:27.119Z,86.40
2019-05-10T01:07:58.491Z,86.65
2019-05-10T01:10:29.779Z,87.05
2019-05-10T01:13:01.101Z,87.43
2019-05-10T01:15:32.387Z,87.30
2019-05-10T01:18:03.734Z,88.00
2019-05-10T01:20:35.018Z,88.26
2019-05-10T01:23:06.319Z,89.07
2019-05-10T01:25:37.655Z,89.00
2019-05-10T01:28:08.973Z,88.86
2019-05-10T01:30:40.332Z,90.03
2019-05-10T01:33:11.652Z,90.02
2019-05-10T01:35:42.935Z,89.55
2019-05-10T01:38:14.307Z,89.92
2019-05-10T01:40:45.577Z,89.92
2019-05-10T01:43:16.933Z,90.23
2019-05-10T01:45:48.220Z,90.26
2019-05-10T01:48:19.543Z,89.22
2019-05-10T01:50:50.831Z,90.54
2019-05-10T01:53:22.136Z,89.34
2019-05-10T01:55:53.432Z,88.34
2019-05-10T01:58:24.749Z,89.30
2019-05-10T02:00:56.045Z,89.64
2019-05-10T02:03:27.359Z,88.81
2019-05-10T02:05:58.661Z,88.70
2019-05-10T02:08:29.932Z,88.34
2019-05-10T02:11:01.220Z,87.96
2019-05-10T02:13:32.489Z,88.64
2019-05-10T02:16:03.783Z,87.77
2019-05-10T02:18:35.080Z,87.39
2019-05-10T02:21:06.446Z,88.02
2019-05-10T02:23:37.740Z,88.11
2019-05-10T02:26:10.110Z,87.32
2019-05-10T02:28:41.474Z,87.49
2019-05-10T02:31:12.862Z,87.67
2019-05-10T02:33:44.133Z,87.80
2019-05-10T02:36:15.584Z,87.91
2019-05-10T02:38:46.862Z,88.51
2019-05-10T02:41:18.167Z,88.62
2019-05-10T02:43:49.455Z,87.67
2019-05-10T02:46:20.773Z,87.25
2019-05-10T02:48:52.034Z,87.90
2019-05-10T02:51:23.322Z,87.53
2019-05-10T02:53:54.700Z,87.63
2019-05-10T02:56:30.783Z,87.54
2019-05-10T02:59:01.880Z,87.09
2019-05-10T03:01:34.627Z,87.51
2019-05-10T03:04:05.930Z,87.50
2019-05-10T03:06:39.622Z,87.41
2019-05-10T03:09:10.947Z,86.77
2019-05-10T03:11:49.600Z,86.65
2019-05-10T03:14:21.103Z,86.67
2019-05-10T03:16:53.193Z,86.76
2019-05-10T03:19:24.560Z,85.87
2019-05-10T03:22:07.220Z,86.49
2019-05-10T03:24:38.602Z,86.30
2019-05-10T03:27:09.910Z,85.64
2019-05-10T03:29:41.218Z,85.91
2019-05-10T03:32:12.490Z,86.45
2019-05-10T03:34:43.807Z,86.52
2019-05-10T03:37:15.250Z,88.00
2019-05-10T03:39:46.537Z,88.85
2019-05-10T03:42:18.089Z,90.23
2019-05-10T03:44:49.372Z,90.73
2019-05-10T03:47:20.784Z,91.23
2019-05-10T03:49:52.037Z,91.68
2019-05-10T03:52:23.333Z,92.69
2019-05-10T03:54:54.628Z,92.79
2019-05-10T03:57:25.927Z,93.13
2019-05-10T03:59:57.260Z,93.08
2019-05-10T04:02:28.555Z,92.61
2019-05-10T04:04:59.964Z,92.54
2019-05-10T04:07:31.272Z,93.12
2019-05-10T04:10:02.549Z,93.40
2019-05-10T04:12:33.806Z,93.62
2019-05-10T04:15:05.719Z,93.01
2019-05-10T04:17:36.980Z,93.69
2019-05-10T04:20:08.670Z,94.11
2019-05-10T04:22:39.962Z,93.56
2019-05-10T04:25:11.540Z,93.92
2019-05-10T04:27:42.854Z,94.31
2019-05-10T04:30:14.564Z,94.66
2019-05-10T04:32:45.876Z,95.39
2019-05-10T04:35:17.264Z,96.12
2019-05-10T04:37:48.555Z,96.53
2019-05-10T04:40:19.839Z,96.26
2019-05-10T04:42:51.125Z,96.91
2019-05-10T04:45:22.513Z,97.75
2019-05-10T04:47:53.853Z,97.39
2019-05-10T04:50:25.439Z,97.40
2019-05-10T04:52:56.729Z,98.30
2019-05-10T04:55:28.023Z,98.37
2019-05-10T04:57:59.462Z,99.63
2019-05-10T05:00:30.782Z,99.27
2019-05-10T05:03:02.129Z,99.56
2019-05-10T05:05:33.423Z,99.20
2019-05-10T05:08:06.431Z,100.00
2019-05-10T05:10:37.811Z,99.66
2019-05-10T05:13:09.111Z,99.95
2019-05-10T05:15:40.363Z,99.69
2019-05-10T05:18:11.710Z,100.00
2019-05-10T05:20:43.034Z,99.68
2019-05-10T05:23:14.415Z,100.00
2019-05-10T05:25:45.708Z,100.00
2019-05-10T05:28:18.547Z,100.00
2019-05-10T05:30:50.360Z,100.00
2019-05-10T05:33:21.681Z,100.00
2019-05-10T05:35:52.948Z,100.00
2019-05-10T05:38:24.313Z,100.00
2019-05-10T05:40:55.581Z,100.00
2019-05-10T05:43:26.904Z,100.00
2019-05-10T05:45:58.189Z,100.00
2019-05-10T05:48:39.954Z,100.00
2019-05-10T05:51:02.532Z,100.00
2019-05-10T05:53:35.779Z,100.00
2019-05-10T05:56:13.212Z,100.00
2019-05-10T05:58:44.640Z,100.00
2019-05-10T06:01:24.253Z,100.00
2019-05-10T06:03:46.121Z,100.00
2019-05-10T06:06:22.318Z,100.00
2019-05-10T06:08:54.421Z,100.00
2019-05-10T06:11:23.558Z,100.00
2019-05-10T06:13:54.910Z,100.00
2019-05-10T06:16:26.243Z,99.96
2019-05-10T06:18:57.554Z,99.59
2019-05-10T06:21:28.901Z,99.17
2019-05-10T06:24:00.208Z,98.02
2019-05-10T06:26:31.595Z,97.69
2019-05-10T06:29:04.707Z,96.64
2019-05-10T06:31:35.967Z,97.24
2019-05-10T06:34:07.405Z,96.85
2019-05-10T06:36:38.769Z,97.04
2019-05-10T06:39:10.241Z,97.52
2019-05-10T06:41:41.565Z,97.69
2019-05-10T06:44:12.897Z,96.95
2019-05-10T06:46:44.244Z,96.06
2019-05-10T06:49:15.548Z,94.57
2019-05-10T06:51:49.048Z,94.50
2019-05-10T06:54:19.909Z,93.85
2019-05-10T06:56:51.246Z,94.26
2019-05-10T06:59:24.897Z,93.37
2019-05-10T07:01:55.547Z,91.80
2019-05-10T07:04:26.878Z,91.58
2019-05-10T07:06:58.206Z,90.92
2019-05-10T07:09:29.730Z,90.88
2019-05-10T07:12:01.006Z,90.58
2019-05-10T07:14:32.336Z,90.32
2019-05-10T07:17:04.495Z,90.29
2019-05-10T07:19:41.588Z,90.70
2019-05-10T07:22:08.824Z,90.71
2019-05-10T07:24:40.113Z,90.46
2019-05-10T07:27:11.413Z,90.04
2019-05-10T07:29:46.126Z,88.35
2019-05-10T07:32:16.441Z,85.33
2019-05-10T07:34:58.281Z,84.19
2019-05-10T07:37:22.092Z,82.53
2019-05-10T07:39:53.427Z,81.75
2019-05-10T07:42:24.722Z,81.75
2019-05-10T07:44:56.053Z,81.68
2019-05-10T07:47:30.592Z,80.92
2019-05-10T07:50:03.845Z,78.13
2019-05-10T07:52:36.331Z,77.98
2019-05-10T07:55:10.105Z,77.22
2019-05-10T07:57:39.745Z,77.10
2019-05-10T08:00:11.822Z,78.00
2019-05-10T08:02:44.383Z,77.70
2019-05-10T08:05:18.481Z,78.53
2019-05-10T08:07:49.893Z,79.50
2019-05-10T08:10:21.659Z,79.95
2019-05-10T08:12:53.066Z,80.48
2019-05-10T08:15:24.863Z,80.31
2019-05-10T08:17:58.509Z,80.09
2019-05-10T08:20:45.735Z,80.28
2019-05-10T08:23:03.038Z,80.39
2019-05-10T08:25:36.403Z,79.89
2019-05-10T08:28:07.636Z,78.67
2019-05-10T08:30:51.745Z,78.24
2019-05-10T08:33:17.427Z,77.58
2019-05-10T08:35:52.392Z,77.29
2019-05-10T08:38:21.976Z,76.66
2019-05-10T08:40:53.421Z,76.97
2019-05-10T08:43:24.937Z,76.79
2019-05-10T08:45:58.041Z,75.00
2019-05-10T08:48:29.399Z,73.89
2019-05-10T08:51:04.070Z,71.43
2019-05-10T08:53:33.713Z,70.33
2019-05-10T08:56:07.773Z,69.53
2019-05-10T08:58:38.105Z,68.64
2019-05-10T09:01:20.452Z,66.64
2019-05-10T09:03:42.418Z,65.84
2019-05-10T09:06:16.787Z,66.70
2019-05-10T09:08:46.699Z,66.94
2019-05-10T09:11:18.040Z,68.06
2019-05-10T09:13:49.326Z,68.59
2019-05-10T09:16:23.527Z,68.00
2019-05-10T09:18:53.732Z,67.86
2019-05-10T09:21:25.044Z,67.02
2019-05-10T09:24:01.512Z,66.91
2019-05-10T09:26:29.398Z,65.78
2019-05-10T09:29:01.700Z,63.28
2019-05-10T09:31:33.586Z,60.77
2019-05-10T09:34:04.880Z,57.69
2019-05-10T09:36:36.510Z,57.55
2019-05-10T09:39:09.198Z,56.32
2019-05-10T09:41:42.149Z,55.78
2019-05-10T09:44:14.397Z,53.42
2019-05-10T09:46:45.682Z,54.63
2019-05-10T09:49:18.508Z,55.25
2019-05-10T09:51:49.942Z,56.00
2019-05-10T09:54:23.128Z,56.89
2019-05-10T09:56:54.216Z,56.55
2019-05-10T09:59:27.663Z,56.81
2019-05-10T10:01:58.533Z,57.40
2019-05-10T10:04:29.858Z,57.26
2019-05-10T10:07:01.176Z,58.07
2019-05-10T10:09:37.363Z,58.43
2019-05-10T10:12:06.938Z,58.64
2019-05-10T10:14:42.992Z,56.81
2019-05-10T10:17:11.420Z,57.00
2019-05-10T10:19:42.773Z,58.00
2019-05-10T10:22:14.145Z,57.08
2019-05-10T10:24:49.004Z,57.88
2019-05-10T10:27:18.476Z,58.01
2019-05-10T10:29:49.753Z,57.94
2019-05-10T10:32:24.815Z,58.11
2019-05-10T10:34:54.840Z,56.31
2019-05-10T10:37:28.994Z,56.53
2019-05-10T10:40:05.157Z,55.63
2019-05-10T10:42:33.049Z,54.79
2019-05-10T10:45:07.235Z,55.09
2019-05-10T10:47:38.272Z,53.56
2019-05-10T10:50:13.439Z,54.78
2019-05-10T10:52:43.309Z,53.11
2019-05-10T10:55:15.408Z,53.60
2019-05-10T10:57:48.072Z,51.63
2019-05-10T11:00:32.869Z,50.78
2019-05-10T11:03:06.220Z,49.08
2019-05-10T11:05:37.645Z,48.95
2019-05-10T11:08:10.987Z,50.49
2019-05-10T11:10:42.908Z,50.24
2019-05-10T11:13:20.468Z,49.32
2019-05-10T11:15:47.370Z,49.88
2019-05-10T11:18:18.632Z,49.39
2019-05-10T11:20:53.886Z,49.80
2019-05-10T11:23:24.647Z,50.77
2019-05-10T11:25:56.673Z,51.02
2019-05-10T11:28:32.034Z,51.73
2019-05-10T11:31:01.234Z,50.69
2019-05-10T11:33:33.725Z,51.06
2019-05-10T11:36:08.626Z,51.26
2019-05-10T11:38:38.226Z,50.68
2019-05-10T11:41:13.546Z,51.44
2019-05-10T11:43:42.543Z,50.93
2019-05-10T11:46:13.855Z,52.00
2019-05-10T11:48:45.194Z,51.28
2019-05-10T11:51:17.582Z,52.10
2019-05-10T11:56:27.330Z,51.42
2019-05-10T11:58:55.514Z,51.10
2019-05-10T11:59:03.715Z,52.25
2019-05-10T12:01:26.974Z,51.24
2019-05-10T12:03:58.258Z,51.90
2019-05-10T12:06:31.770Z,53.11
2019-05-10T12:09:04.646Z,52.89
2019-05-10T12:11:43.809Z,53.12
2019-05-10T12:14:08.489Z,54.94
2019-05-10T12:16:41.944Z,56.57
2019-05-10T12:19:19.816Z,57.89
2019-05-10T12:21:45.751Z,58.19
2019-05-10T12:24:34.110Z,59.45
2019-05-10T12:29:22.972Z,60.10
2019-05-10T12:31:56.957Z,60.85
2019-05-10T12:34:27.615Z,60.44
2019-05-10T12:37:03.819Z,60.62
2019-05-10T12:39:31.914Z,61.46
2019-05-10T12:42:03.206Z,61.74
2019-05-10T12:44:38.850Z,62.45
2019-05-10T12:47:07.595Z,63.62
2019-05-10T12:49:40.815Z,63.64
2019-05-10T12:52:14.338Z,65.73
2019-05-10T12:54:44.957Z,66.45
2019-05-10T12:57:16.233Z,68.12
2019-05-10T12:59:47.567Z,65.42
2019-05-10T13:02:23.468Z,66.77
2019-05-10T13:04:54.315Z,66.45
2019-05-10T13:07:25.721Z,66.97
2019-05-10T13:10:03.583Z,67.97
2019-05-10T13:12:29.997Z,67.31
2019-05-10T13:15:01.354Z,66.55
2019-05-10T13:17:32.773Z,65.75
2019-05-10T13:20:04.208Z,65.12
2019-05-10T13:22:37.592Z,65.23
2019-05-10T13:25:09.284Z,63.12
2019-05-10T13:27:40.616Z,64.14
2019-05-10T13:30:13.827Z,63.80
2019-05-10T13:32:45.156Z,62.95
2019-05-10T13:35:16.459Z,64.26
2019-05-10T13:37:47.825Z,64.21
2019-05-10T13:40:19.150Z,63.85
2019-05-10T13:42:50.507Z,64.21
2019-05-10T13:45:21.828Z,61.74
2019-05-10T13:47:53.184Z,63.43
2019-05-10T13:50:24.546Z,62.28
2019-05-10T13:52:55.928Z,61.58
2019-05-10T13:55:27.272Z,58.08
2019-05-10T13:57:58.518Z,57.61
2019-05-10T14:00:34.275Z,56.49
2019-05-10T14:03:05.092Z,55.00
2019-05-10T14:05:35.802Z,55.61
2019-05-10T14:08:07.157Z,54.19
2019-05-10T14:10:38.580Z,51.45
2019-05-10T14:13:09.853Z,48.93
2019-05-10T14:15:41.172Z,48.22
2019-05-10T14:18:12.440Z,47.41
2019-05-10T14:20:43.730Z,49.17
2019-05-10T14:23:17.823Z,49.12
2019-05-10T14:25:47.999Z,48.62
2019-05-10T14:28:19.333Z,43.96
2019-05-10T14:30:57.167Z,47.10
2019-05-10T14:33:23.548Z,46.39
2019-05-10T14:36:00.322Z,44.93
2019-05-10T14:38:27.866Z,45.25
2019-05-10T14:41:03.980Z,42.05
2019-05-10T14:43:32.131Z,41.37
2019-05-10T14:46:03.461Z,42.60
2019-05-10T14:48:35.603Z,42.48
2019-05-10T14:51:10.794Z,44.77
2019-05-10T14:53:40.069Z,42.57
2019-05-10T14:56:14.017Z,43.61
2019-05-10T14:58:44.372Z,46.15
2019-05-10T15:01:15.655Z,44.79
2019-05-10T15:03:47.504Z,47.88
2019-05-10T15:06:18.907Z,49.20
2019-05-10T15:08:50.228Z,50.76
2019-05-10T15:11:26.463Z,51.03
2019-05-10T15:13:54.581Z,53.08
2019-05-10T15:16:30.271Z,56.04
2019-05-10T15:18:58.875Z,57.30
2019-05-10T15:21:30.173Z,59.20
2019-05-10T15:24:03.086Z,62.38
2019-05-10T15:26:37.490Z,62.69
2019-05-10T15:29:07.477Z,63.19
2019-05-10T15:31:38.739Z,63.96
2019-05-10T15:34:10.007Z,65.25
2019-05-10T15:36:41.304Z,64.89
2019-05-10T15:39:12.574Z,64.58
2019-05-10T15:41:43.896Z,64.43
2019-05-10T15:44:15.185Z,62.86
2019-05-10T15:46:46.415Z,63.02
2019-05-10T15:49:22.646Z,62.79
2019-05-10T15:51:56.769Z,62.01
2019-05-10T15:54:23.849Z,61.42
2019-05-10T15:56:55.768Z,62.01
2019-05-10T15:59:27.284Z,61.15
2019-05-10T16:01:58.650Z,59.63
2019-05-10T16:04:29.972Z,58.39
2019-05-10T16:07:01.345Z,56.87
2019-05-10T16:09:32.621Z,56.75
2019-05-10T16:12:08.434Z,56.46
2019-05-10T16:14:39.242Z,56.10
2019-05-10T16:17:16.359Z,54.99
2019-05-10T16:19:43.003Z,56.09
2019-05-10T16:22:14.521Z,54.54
2019-05-10T16:24:45.807Z,52.93
2019-05-10T16:27:17.079Z,52.94
2019-05-10T16:29:48.325Z,53.04
2019-05-10T16:32:19.607Z,53.24
2019-05-10T16:34:50.853Z,53.13
2019-05-10T16:37:22.122Z,53.97
2019-05-10T16:39:53.458Z,54.90
2019-05-10T16:42:27.779Z,54.80
2019-05-10T16:44:57.686Z,55.23
2019-05-10T16:47:28.983Z,55.44
2019-05-10T16:50:00.248Z,56.30
2019-05-10T16:52:31.498Z,57.22
2019-05-10T16:55:03.721Z,57.75
2019-05-10T16:57:37.254Z,58.47
2019-05-10T17:00:10.598Z,58.54
2019-05-10T17:02:43.864Z,59.25
2019-05-10T17:05:17.151Z,59.15
2019-05-10T17:07:48.368Z,59.75
2019-05-10T17:10:19.699Z,61.67
2019-05-10T17:12:50.997Z,61.00
2019-05-10T17:15:22.287Z,61.79
2019-05-10T17:17:53.610Z,63.04
2019-05-10T17:20:24.958Z,66.34
2019-05-10T17:23:08.124Z,67.60
2019-05-10T17:25:29.421Z,68.72
2019-05-10T17:28:00.757Z,69.70
2019-05-10T17:30:32.165Z,70.63
2019-05-10T17:33:05.873Z,71.62
2019-05-10T17:35:41.974Z,72.35
2019-05-10T17:38:14.252Z,72.15
2019-05-10T17:40:48.081Z,73.02
2019-05-10T17:43:20.586Z,73.55
2019-05-10T17:45:48.693Z,74.86
2019-05-10T17:48:22.446Z,75.44
2019-05-10T17:50:53.783Z,74.00
2019-05-10T17:53:25.057Z,74.67
2019-05-10T17:56:01.760Z,75.28
2019-05-10T17:58:33.782Z,75.06
2019-05-10T18:01:02.425Z,75.09
2019-05-10T18:03:33.773Z,74.64
2019-05-10T18:06:05.258Z,74.61
2019-05-10T18:08:36.522Z,74.01
2019-05-10T18:11:07.821Z,74.13
2019-05-10T18:13:40.840Z,74.52
2019-05-10T18:16:12.097Z,74.46
2019-05-10T18:18:47.224Z,74.32
2019-05-10T18:21:22.260Z,76.23
2019-05-10T18:23:52.676Z,75.66
2019-05-10T18:26:23.998Z,75.79
2019-05-10T18:28:55.275Z,75.91
2019-05-10T18:31:26.631Z,77.25
2019-05-10T18:33:57.866Z,76.73
2019-05-10T18:36:50.350Z,77.01
2019-05-10T18:39:02.238Z,77.71
2019-05-10T18:41:33.635Z,78.48
2019-05-10T18:44:04.923Z,78.92
2019-05-10T18:46:36.203Z,80.05
2019-05-10T18:49:07.509Z,81.32
2019-05-10T18:51:38.791Z,82.64
2019-05-10T18:54:10.070Z,81.90
2019-05-10T18:56:41.342Z,82.04
2019-05-10T18:59:12.656Z,83.06
2019-05-10T19:01:43.966Z,84.06
2019-05-10T19:04:15.762Z,84.92
2019-05-10T19:06:50.090Z,85.71
2019-05-10T19:09:20.331Z,86.50
2019-05-10T19:11:51.894Z,86.73
2019-05-10T19:14:23.941Z,87.61
2019-05-10T19:16:56.224Z,88.01
2019-05-10T19:19:27.476Z,87.64
2019-05-10T19:22:03.102Z,87.94
2019-05-10T19:24:32.127Z,88.31
2019-05-10T19:27:07.449Z,88.63
2019-05-10T19:29:38.856Z,89.13
2019-05-10T19:32:11.589Z,89.38
2019-05-10T19:34:47.458Z,89.60
2019-05-10T19:37:28.251Z,89.46
2019-05-10T19:39:48.863Z,89.80
2019-05-10T19:42:20.126Z,89.75
2019-05-10T19:44:51.419Z,89.78
2019-05-10T19:47:22.758Z,89.77
2019-05-10T19:49:54.086Z,90.17
2019-05-10T19:52:26.244Z,90.09
2019-05-10T19:54:58.414Z,90.38
2019-05-10T19:57:29.771Z,90.56
2019-05-10T20:00:01.059Z,90.50
2019-05-10T20:02:32.354Z,90.55
2019-05-10T20:05:03.924Z,90.72
2019-05-10T20:07:45.140Z,90.67
2019-05-10T20:10:09.469Z,90.49
2019-05-10T20:12:40.780Z,90.49
2019-05-10T20:15:12.549Z,90.44
2019-05-10T20:17:43.992Z,90.89
2019-05-10T20:20:15.964Z,91.62
2019-05-10T20:22:47.590Z,91.81
2019-05-10T20:25:19.128Z,91.79
2019-05-10T20:27:50.570Z,91.75
2019-05-10T20:30:22.475Z,91.87
2019-05-10T20:32:53.731Z,91.94
2019-05-10T20:35:25.027Z,92.09
2019-05-10T20:38:01.911Z,92.01
2019-05-10T20:40:29.409Z,92.08
2019-05-10T20:43:00.879Z,91.92
2019-05-10T20:45:32.660Z,92.06
2019-05-10T20:48:04.325Z,92.72
2019-05-10T20:50:36.154Z,92.77
2019-05-10T20:53:07.496Z,92.91
2019-05-10T20:55:38.746Z,93.12
2019-05-10T20:58:10.077Z,92.96
2019-05-10T21:00:41.398Z,92.93
2019-05-10T21:03:12.641Z,91.98
2019-05-10T21:05:43.852Z,91.82
2019-05-10T21:08:16.789Z,92.05
2019-05-10T21:10:47.992Z,92.25
2019-05-10T21:13:19.212Z,93.78
2019-05-10T21:15:50.431Z,94.33
2019-05-10T21:18:21.714Z,94.30
2019-05-10T21:20:52.953Z,94.36
2019-05-10T21:23:24.115Z,94.08
2019-05-10T21:25:55.388Z,92.70
2019-05-10T21:28:26.586Z,92.73
2019-05-10T21:30:57.920Z,92.95
2019-05-10T21:33:29.168Z,93.12
2019-05-10T21:36:00.494Z,93.50
2019-05-10T21:38:33.437Z,93.78
2019-05-10T21:41:04.898Z,94.30
2019-05-10T21:43:36.194Z,94.00
2019-05-10T21:46:07.526Z,94.10
2019-05-10T21:48:38.880Z,94.29
2019-05-10T21:51:10.188Z,94.40
2019-05-10T21:53:41.492Z,94.69
2019-05-10T21:56:12.773Z,95.14
2019-05-10T21:58:44.067Z,95.36
2019-05-10T22:01:15.494Z,95.20
2019-05-10T22:03:47.225Z,94.73
2019-05-10T22:06:18.759Z,95.14
2019-05-10T22:08:50.131Z,95.34
2019-05-10T22:11:21.473Z,96.11
2019-05-10T22:13:52.731Z,97.18
2019-05-10T22:16:24.030Z,98.11
2019-05-10T22:19:04.240Z,97.95
2019-05-10T22:21:35.577Z,97.58
2019-05-10T22:24:06.880Z,97.55
2019-05-10T22:26:38.217Z,97.66
2019-05-10T22:29:09.708Z,98.03
2019-05-10T22:31:41.315Z,98.11
2019-05-10T22:34:13.607Z,97.48
2019-05-10T22:36:45.140Z,97.42
2019-05-10T22:39:16.423Z,96.95
2019-05-10T22:41:47.716Z,97.31
2019-05-10T22:44:19.018Z,97.70
2019-05-10T22:46:50.361Z,97.40
2019-05-10T22:49:21.621Z,97.51
2019-05-10T22:51:52.880Z,97.14
2019-05-10T22:54:24.191Z,95.96
2019-05-10T22:56:55.483Z,95.36
2019-05-10T22:59:26.810Z,95.29
2019-05-10T23:01:58.103Z,95.05
2019-05-10T23:04:29.399Z,94.88
2019-05-10T23:07:00.670Z,95.15
2019-05-10T23:09:31.991Z,95.19
2019-05-10T23:12:03.307Z,95.93
2019-05-10T23:14:34.690Z,96.33
2019-05-10T23:17:05.987Z,97.24
2019-05-10T23:19:37.313Z,98.00
2019-05-10T23:22:08.578Z,98.21
2019-05-10T23:24:40.071Z,98.43
2019-05-10T23:27:11.350Z,98.79
2019-05-10T23:29:42.643Z,99.04
2019-05-10T23:32:13.953Z,99.30
2019-05-10T23:34:45.242Z,99.64
2019-05-10T23:37:16.531Z,99.94
2019-05-10T23:39:47.831Z,99.83
2019-05-10T23:42:19.119Z,100.00
2019-05-10T23:44:50.401Z,99.82
2019-05-10T23:47:21.723Z,100.00
2019-05-10T23:49:53.061Z,100.00
2019-05-10T23:52:24.576Z,100.00
2019-05-10T23:54:55.843Z,99.32
2019-05-10T23:57:27.144Z,99.12
2019-05-10T23:59:58.469Z,99.28
